createdAt,value
2023-04-16T00:01:44.404Z,100983.46
2023-04-16T00:04:13.275Z,100983.31
2023-04-16T00:06:42.021Z,100986.33
2023-04-16T00:09:10.944Z,100987.42
2023-04-16T00:11:39.734Z,100988.23
2023-04-16T00:14:08.412Z,100986.46
2023-04-16T00:16:38.728Z,100991.14
2023-04-16T00:19:07.462Z,100997.27
2023-04-16T00:21:36.405Z,100999.41
2023-04-16T00:24:05.016Z,101001.81
2023-04-16T00:26:33.741Z,101003.58
2023-04-16T00:29:02.251Z,101002.05
2023-04-16T00:31:33.792Z,101011.98
2023-04-16T00:34:02.492Z,101008.34
2023-04-16T00:36:31.167Z,101008.79
2023-04-16T00:38:59.803Z,101009.05
2023-04-16T00:41:28.607Z,101011.52
2023-04-16T00:43:57.144Z,101014.17
2023-04-16T00:46:26.338Z,101010.29
2023-04-16T00:48:56.660Z,101014.46
2023-04-16T00:51:25.399Z,101015.30
2023-04-16T00:53:54.619Z,101010.63
2023-04-16T00:56:25.192Z,101013.80
2023-04-16T00:58:56.434Z,101015.21
2023-04-16T01:01:25.207Z,101016.08
2023-04-16T01:03:55.235Z,101013.79
2023-04-16T01:06:23.958Z,101016.23
2023-04-16T01:08:52.989Z,101018.65
2023-04-16T01:11:21.749Z,101016.98
2023-04-16T01:13:50.443Z,101017.50
2023-04-16T01:16:19.252Z,101016.59
2023-04-16T01:18:48.589Z,101016.00
2023-04-16T01:21:17.280Z,101015.50
2023-04-16T01:23:46.159Z,101012.46
2023-04-16T01:26:14.892Z,101010.21
2023-04-16T01:28:43.666Z,101008.30
2023-04-16T01:31:12.460Z,101013.92
2023-04-16T01:33:53.477Z,101016.46
2023-04-16T01:36:22.401Z,101015.00
2023-04-16T01:38:51.673Z,101011.44
2023-04-16T01:41:20.463Z,101014.55
2023-04-16T01:43:49.133Z,101012.35
2023-04-16T01:46:35.665Z,101010.82
2023-04-16T01:49:05.203Z,101008.89
2023-04-16T01:51:33.882Z,101009.37
2023-04-16T01:54:02.617Z,101011.29
2023-04-16T01:56:31.146Z,101008.48
2023-04-16T01:58:59.778Z,101005.90
2023-04-16T02:01:30.820Z,101008.48
2023-04-16T02:03:59.597Z,101006.67
2023-04-16T02:06:28.481Z,101009.85
2023-04-16T02:08:57.083Z,101011.30
2023-04-16T02:11:27.107Z,101015.27
2023-04-16T02:13:56.151Z,101012.52
2023-04-16T02:16:26.472Z,101017.14
2023-04-16T02:19:01.020Z,101014.58
2023-04-16T02:21:31.864Z,101016.03
2023-04-16T02:24:01.080Z,101020.98
2023-04-16T02:26:31.486Z,101019.85
2023-04-16T02:29:04.928Z,101024.89
2023-04-16T02:31:40.707Z,101020.54
2023-04-16T02:34:10.333Z,101018.73
2023-04-16T02:36:39.238Z,101020.52
2023-04-16T02:39:08.211Z,101020.08
2023-04-16T02:41:37.185Z,101019.98
2023-04-16T02:44:06.201Z,101017.74
2023-04-16T02:46:34.899Z,101016.50
2023-04-16T02:49:03.498Z,101018.08
2023-04-16T02:51:33.388Z,101021.66
2023-04-16T02:54:03.403Z,101026.42
2023-04-16T02:56:32.351Z,101029.45
2023-04-16T02:59:00.947Z,101030.55
2023-04-16T03:01:29.700Z,101026.52
2023-04-16T03:03:58.393Z,101026.60
2023-04-16T03:06:27.338Z,101026.13
2023-04-16T03:08:56.157Z,101027.10
2023-04-16T03:11:24.867Z,101030.19
2023-04-16T03:13:54.133Z,101029.03
2023-04-16T03:16:22.834Z,101034.33
2023-04-16T03:18:51.585Z,101034.98
2023-04-16T03:21:20.199Z,101035.94
2023-04-16T03:23:49.081Z,101039.30
2023-04-16T03:26:17.690Z,101039.95
2023-04-16T03:28:46.794Z,101044.09
2023-04-16T03:31:15.569Z,101042.64
2023-04-16T03:33:44.289Z,101045.34
2023-04-16T03:36:13.049Z,101043.05
2023-04-16T03:38:42.727Z,101048.06
2023-04-16T03:41:11.569Z,101055.13
2023-04-16T03:43:40.507Z,101059.47
2023-04-16T03:46:09.511Z,101056.27
2023-04-16T03:48:38.231Z,101057.52
2023-04-16T03:51:06.900Z,101057.29
2023-04-16T03:53:35.692Z,101059.21
2023-04-16T03:56:04.729Z,101061.50
2023-04-16T03:58:33.563Z,101061.61
2023-04-16T04:01:02.148Z,101063.98
2023-04-16T04:03:32.111Z,101068.30
2023-04-16T04:06:00.985Z,101071.86
2023-04-16T04:08:31.526Z,101069.80
2023-04-16T04:11:00.087Z,101062.00
2023-04-16T04:13:29.467Z,101065.45
2023-04-16T04:15:58.156Z,101064.77
2023-04-16T04:18:28.586Z,101064.36
2023-04-16T04:20:58.188Z,101064.23
2023-04-16T04:23:29.230Z,101066.04
2023-04-16T04:25:58.095Z,101066.27
2023-04-16T04:28:26.921Z,101070.73
2023-04-16T04:30:55.834Z,101071.52
2023-04-16T04:33:26.126Z,101078.66
2023-04-16T04:35:58.603Z,101077.52
2023-04-16T04:38:27.549Z,101078.63
2023-04-16T04:40:56.506Z,101073.98
2023-04-16T04:43:27.495Z,101076.41
2023-04-16T04:45:57.691Z,101077.64
2023-04-16T04:48:28.935Z,101079.44
2023-04-16T04:50:58.324Z,101077.73
2023-04-16T04:53:31.930Z,101083.36
2023-04-16T04:56:09.141Z,101079.34
2023-04-16T04:58:42.078Z,101073.98
2023-04-16T05:01:12.120Z,101079.16
2023-04-16T05:03:41.885Z,101080.45
2023-04-16T05:06:11.541Z,101086.73
2023-04-16T05:08:41.025Z,101087.06
2023-04-16T05:11:10.973Z,101085.70
2023-04-16T05:13:41.931Z,101089.77
2023-04-16T05:16:17.150Z,101092.46
2023-04-16T05:18:49.117Z,101090.33
2023-04-16T05:21:18.245Z,101085.74
2023-04-16T05:23:46.998Z,101089.67
2023-04-16T05:26:15.760Z,101091.72
2023-04-16T05:28:44.735Z,101087.44
2023-04-16T05:31:14.049Z,101084.38
2023-04-16T05:33:43.101Z,101084.60
2023-04-16T05:36:11.804Z,101084.65
2023-04-16T05:38:40.811Z,101092.16
2023-04-16T05:41:09.548Z,101089.53
2023-04-16T05:43:38.339Z,101088.69
2023-04-16T05:46:07.473Z,101090.42
2023-04-16T05:48:36.347Z,101093.88
2023-04-16T05:51:05.422Z,101095.65
2023-04-16T05:53:34.120Z,101097.73
2023-04-16T05:56:02.838Z,101100.67
2023-04-16T05:58:31.457Z,101100.66
2023-04-16T06:01:01.407Z,101104.34
2023-04-16T06:03:32.270Z,101101.64
2023-04-16T06:06:03.711Z,101100.70
2023-04-16T06:08:36.205Z,101102.24
2023-04-16T06:11:05.600Z,101105.91
2023-04-16T06:13:38.030Z,101111.73
2023-04-16T06:16:08.183Z,101116.88
2023-04-16T06:18:37.972Z,101121.20
2023-04-16T06:21:07.605Z,101123.27
2023-04-16T06:23:36.304Z,101128.01
2023-04-16T06:26:05.851Z,101126.61
2023-04-16T06:28:35.176Z,101130.80
2023-04-16T06:31:05.512Z,101128.50
2023-04-16T06:33:37.714Z,101124.27
2023-04-16T06:36:07.055Z,101119.05
2023-04-16T06:38:37.366Z,101115.77
2023-04-16T06:41:14.210Z,101109.38
2023-04-16T06:43:43.103Z,101109.41
2023-04-16T06:46:12.247Z,101112.02
2023-04-16T06:48:41.389Z,101110.18
2023-04-16T06:51:12.045Z,101115.82
2023-04-16T06:53:41.125Z,101109.79
2023-04-16T06:56:10.381Z,101106.22
2023-04-16T06:58:43.052Z,101106.93
2023-04-16T07:01:12.181Z,101114.55
2023-04-16T07:03:41.647Z,101119.38
2023-04-16T07:06:13.343Z,101120.88
2023-04-16T07:08:42.212Z,101122.92
2023-04-16T07:11:11.131Z,101121.26
2023-04-16T07:13:39.913Z,101124.41
2023-04-16T07:16:08.687Z,101129.93
2023-04-16T07:18:37.340Z,101131.95
2023-04-16T07:21:06.646Z,101132.32
2023-04-16T07:23:35.941Z,101122.05
2023-04-16T07:26:04.702Z,101122.00
2023-04-16T07:28:33.415Z,101115.58
2023-04-16T07:31:03.709Z,101117.05
2023-04-16T07:33:32.354Z,101118.61
2023-04-16T07:36:01.991Z,101116.84
2023-04-16T07:38:31.010Z,101117.12
2023-04-16T07:40:59.830Z,101118.92
2023-04-16T07:43:28.506Z,101121.16
2023-04-16T07:46:08.542Z,101121.59
2023-04-16T07:48:37.878Z,101119.54
2023-04-16T07:51:07.144Z,101125.27
2023-04-16T07:53:36.226Z,101125.36
2023-04-16T07:56:05.193Z,101127.52
2023-04-16T07:58:34.378Z,101127.13
2023-04-16T08:01:03.478Z,101127.17
2023-04-16T08:03:32.569Z,101130.58
2023-04-16T08:06:01.742Z,101134.66
2023-04-16T08:08:30.712Z,101134.90
2023-04-16T08:11:00.386Z,101133.42
2023-04-16T08:13:30.858Z,101129.05
2023-04-16T08:16:02.442Z,101127.64
2023-04-16T08:18:31.398Z,101123.52
2023-04-16T08:21:00.599Z,101126.52
2023-04-16T08:23:30.105Z,101121.77
2023-04-16T08:25:59.101Z,101119.43
2023-04-16T08:28:28.087Z,101120.45
2023-04-16T08:30:57.112Z,101122.73
2023-04-16T08:33:26.164Z,101120.31
2023-04-16T08:35:55.144Z,101121.85
2023-04-16T08:38:24.023Z,101120.19
2023-04-16T08:40:55.285Z,101121.42
2023-04-16T08:43:25.208Z,101121.14
2023-04-16T08:45:56.596Z,101123.57
2023-04-16T08:48:26.540Z,101124.97
2023-04-16T08:50:58.074Z,101132.17
2023-04-16T08:53:53.239Z,101128.10
2023-04-16T08:56:25.101Z,101131.59
2023-04-16T08:58:55.685Z,101137.84
2023-04-16T09:01:27.417Z,101133.32
2023-04-16T09:04:03.823Z,101139.09
2023-04-16T09:06:36.902Z,101142.04
2023-04-16T09:09:07.725Z,101143.27
2023-04-16T09:11:40.706Z,101141.34
2023-04-16T09:14:12.095Z,101134.67
2023-04-16T09:16:42.201Z,101143.55
2023-04-16T09:19:11.474Z,101149.17
2023-04-16T09:21:43.167Z,101146.39
2023-04-16T09:24:12.200Z,101143.28
2023-04-16T09:26:45.958Z,101147.17
2023-04-16T09:29:38.337Z,101155.48
2023-04-16T09:32:12.279Z,101157.36
2023-04-16T09:35:11.292Z,101157.46
2023-04-16T09:37:43.267Z,101162.64
2023-04-16T09:40:12.599Z,101166.88
2023-04-16T09:42:41.851Z,101169.29
2023-04-16T09:45:11.401Z,101170.01
2023-04-16T09:47:46.530Z,101176.86
2023-04-16T09:50:20.474Z,101177.77
2023-04-16T09:52:51.802Z,101170.95
2023-04-16T09:55:28.704Z,101166.48
2023-04-16T09:58:02.468Z,101165.61
2023-04-16T10:00:43.389Z,101164.92
2023-04-16T10:03:18.063Z,101156.76
2023-04-16T10:05:47.392Z,101158.65
2023-04-16T10:08:22.342Z,101159.39
2023-04-16T10:10:59.319Z,101163.06
2023-04-16T10:13:31.210Z,101166.50
2023-04-16T10:16:02.888Z,101165.19
2023-04-16T10:18:42.263Z,101162.41
2023-04-16T10:21:13.158Z,101164.76
2023-04-16T10:23:50.151Z,101165.65
2023-04-16T10:26:22.383Z,101162.60
2023-04-16T10:28:51.558Z,101154.99
2023-04-16T10:31:23.684Z,101158.20
2023-04-16T10:33:52.785Z,101157.95
2023-04-16T10:36:31.303Z,101161.50
2023-04-16T10:39:01.842Z,101164.98
2023-04-16T10:41:34.153Z,101164.45
2023-04-16T10:44:11.859Z,101166.73
2023-04-16T10:46:49.664Z,101165.77
2023-04-16T10:49:26.063Z,101166.70
2023-04-16T10:52:11.791Z,101168.50
2023-04-16T10:54:41.509Z,101169.46
2023-04-16T10:57:19.843Z,101169.30
2023-04-16T10:59:51.054Z,101170.16
2023-04-16T11:02:21.010Z,101163.58
2023-04-16T11:04:50.736Z,101168.86
2023-04-16T11:07:26.046Z,101166.46
2023-04-16T11:10:07.546Z,101166.73
2023-04-16T11:12:48.778Z,101162.67
2023-04-16T11:15:30.590Z,101161.86
2023-04-16T11:18:07.387Z,101164.44
2023-04-16T11:20:45.055Z,101159.70
2023-04-16T11:23:18.752Z,101157.21
2023-04-16T11:25:59.317Z,101156.33
2023-04-16T11:28:41.054Z,101159.11
2023-04-16T11:31:15.920Z,101165.91
2023-04-16T11:33:57.766Z,101167.31
2023-04-16T11:36:28.846Z,101170.27
2023-04-16T11:39:04.662Z,101166.23
2023-04-16T11:41:52.691Z,101170.41
2023-04-16T11:44:26.574Z,101163.78
2023-04-16T11:46:57.008Z,101169.38
2023-04-16T11:49:31.915Z,101174.45
2023-04-16T11:52:01.213Z,101173.27
2023-04-16T11:54:35.062Z,101172.63
2023-04-16T11:57:06.675Z,101173.82
2023-04-16T11:59:37.480Z,101171.73
2023-04-16T12:02:40.271Z,101173.44
2023-04-16T12:05:34.015Z,101181.11
2023-04-16T12:08:06.870Z,101180.07
2023-04-16T12:10:55.422Z,101174.13
2023-04-16T12:13:24.460Z,101168.92
2023-04-16T12:15:56.161Z,101164.42
2023-04-16T12:19:52.225Z,101153.09
2023-04-16T12:22:38.729Z,101165.13
2023-04-16T12:25:16.021Z,101168.27
2023-04-16T12:27:54.200Z,101175.23
2023-04-16T12:30:31.296Z,101179.86
2023-04-16T12:33:19.155Z,101178.45
2023-04-16T12:35:48.412Z,101173.80
2023-04-16T12:38:21.250Z,101175.27
2023-04-16T12:40:51.096Z,101170.64
2023-04-16T12:43:23.454Z,101169.51
2023-04-16T12:45:52.746Z,101169.54
2023-04-16T12:48:24.950Z,101165.13
2023-04-16T12:50:57.068Z,101164.71
2023-04-16T12:53:26.156Z,101163.73
2023-04-16T12:55:55.504Z,101161.69
2023-04-16T12:58:24.804Z,101152.83
2023-04-16T13:00:54.645Z,101148.55
2023-04-16T13:03:23.509Z,101141.75
2023-04-16T13:05:53.431Z,101138.99
2023-04-16T13:08:23.386Z,101141.81
2023-04-16T13:10:52.302Z,101140.54
2023-04-16T13:13:21.256Z,101141.97
2023-04-16T13:15:50.107Z,101143.08
2023-04-16T13:18:19.808Z,101148.07
2023-04-16T13:21:17.283Z,101143.02
2023-04-16T13:23:49.612Z,101147.15
2023-04-16T13:26:18.570Z,101143.31
2023-04-16T13:28:48.083Z,101153.11
2023-04-16T13:31:22.426Z,101155.45
2023-04-16T13:33:51.379Z,101159.57
2023-04-16T13:36:20.059Z,101160.59
2023-04-16T13:38:48.809Z,101162.05
2023-04-16T13:41:17.525Z,101161.09
2023-04-16T13:43:46.255Z,101155.58
2023-04-16T13:46:16.215Z,101159.02
2023-04-16T13:48:47.777Z,101158.02
2023-04-16T13:51:18.846Z,101158.48
2023-04-16T13:53:49.737Z,101163.39
2023-04-16T13:56:18.922Z,101161.92
2023-04-16T13:58:47.658Z,101160.41
2023-04-16T14:01:18.249Z,101160.14
2023-04-16T14:03:47.785Z,101154.92
2023-04-16T14:06:18.743Z,101161.81
2023-04-16T14:11:40.799Z,101161.45
2023-04-16T14:14:10.792Z,101157.55
2023-04-16T14:16:40.910Z,101150.27
2023-04-16T14:19:10.523Z,101147.84
2023-04-16T14:21:43.548Z,101149.05
2023-04-16T14:24:13.396Z,101143.23
2023-04-16T14:26:48.324Z,101137.25
2023-04-16T14:29:17.428Z,101141.77
2023-04-16T14:31:48.165Z,101144.38
2023-04-16T14:34:17.704Z,101145.71
2023-04-16T14:40:09.168Z,101153.27
2023-04-16T14:42:39.583Z,101153.16
2023-04-16T14:45:09.898Z,101152.06
2023-04-16T14:47:46.211Z,101155.88
2023-04-16T14:50:18.095Z,101157.94
2023-04-16T14:52:47.700Z,101162.73
2023-04-16T14:55:19.525Z,101157.34
2023-04-16T14:57:48.297Z,101160.36
2023-04-16T15:00:18.999Z,101157.92
2023-04-16T15:02:48.506Z,101161.80
2023-04-16T15:05:18.859Z,101165.66
2023-04-16T15:07:48.339Z,101164.64
2023-04-16T15:10:21.831Z,101159.23
2023-04-16T15:12:53.554Z,101165.56
2023-04-16T15:15:46.598Z,101167.20
2023-04-16T15:18:17.373Z,101164.48
2023-04-16T15:20:47.563Z,101149.83
2023-04-16T15:23:16.358Z,101151.04
2023-04-16T15:25:47.511Z,101148.31
2023-04-16T15:28:16.456Z,101149.86
2023-04-16T15:30:46.059Z,101148.45
2023-04-16T15:33:15.683Z,101161.17
2023-04-16T15:35:44.507Z,101161.58
2023-04-16T15:38:13.079Z,101165.61
2023-04-16T15:40:41.816Z,101171.88
2023-04-16T15:43:10.604Z,101169.19
2023-04-16T15:45:39.288Z,101160.84
2023-04-16T15:48:08.138Z,101161.27
2023-04-16T15:50:36.950Z,101167.42
2023-04-16T15:53:05.930Z,101167.80
2023-04-16T15:55:37.872Z,101168.34
2023-04-16T15:58:10.109Z,101170.86
2023-04-16T16:00:39.614Z,101167.64
2023-04-16T16:03:10.050Z,101169.00
2023-04-16T16:05:40.795Z,101165.69
2023-04-16T16:08:09.660Z,101167.42
2023-04-16T16:10:38.675Z,101163.40
2023-04-16T16:13:12.446Z,101162.55
2023-04-16T16:15:44.923Z,101164.22
2023-04-16T16:18:16.543Z,101165.21
2023-04-16T16:20:48.437Z,101163.16
2023-04-16T16:23:19.766Z,101163.22
2023-04-16T16:25:53.926Z,101165.77
2023-04-16T16:28:26.338Z,101172.91
2023-04-16T16:30:56.078Z,101184.58
2023-04-16T16:33:25.849Z,101185.15
2023-04-16T16:35:58.728Z,101175.16
2023-04-16T16:38:27.762Z,101169.77
2023-04-16T16:40:56.707Z,101174.13
2023-04-16T16:43:25.703Z,101178.41
2023-04-16T16:45:57.242Z,101183.48
2023-04-16T16:48:26.188Z,101187.06
2023-04-16T16:50:55.408Z,101187.31
2023-04-16T16:53:24.152Z,101187.71
2023-04-16T16:55:52.956Z,101187.68
2023-04-16T16:58:21.703Z,101187.05
2023-04-16T17:00:50.521Z,101183.81
2023-04-16T17:03:19.659Z,101186.99
2023-04-16T17:05:48.658Z,101189.67
2023-04-16T17:08:17.949Z,101188.27
2023-04-16T17:10:46.773Z,101193.73
2023-04-16T17:13:19.896Z,101194.58
2023-04-16T17:15:49.513Z,101196.71
2023-04-16T17:18:21.432Z,101200.50
2023-04-16T17:20:50.359Z,101202.67
2023-04-16T17:23:19.064Z,101202.30
2023-04-16T17:25:47.810Z,101204.52
2023-04-16T17:28:16.594Z,101208.61
2023-04-16T17:30:46.344Z,101210.38
2023-04-16T17:33:14.948Z,101209.80
2023-04-16T17:35:43.744Z,101213.00
2023-04-16T17:38:12.619Z,101213.75
2023-04-16T17:40:41.320Z,101212.89
2023-04-16T17:43:10.609Z,101209.96
2023-04-16T17:45:41.864Z,101212.45
2023-04-16T17:48:11.200Z,101211.95
2023-04-16T17:50:40.348Z,101211.35
2023-04-16T17:53:10.698Z,101213.95
2023-04-16T17:55:40.066Z,101214.30
2023-04-16T17:58:09.093Z,101217.36
2023-04-16T18:00:38.022Z,101214.10
2023-04-16T18:03:06.769Z,101218.29
2023-04-16T18:05:35.844Z,101220.30
2023-04-16T18:08:04.751Z,101224.23
2023-04-16T18:10:33.549Z,101223.38
2023-04-16T18:13:02.295Z,101224.73
2023-04-16T18:15:30.984Z,101216.55
2023-04-16T18:18:00.095Z,101217.54
2023-04-16T18:20:28.891Z,101217.98
2023-04-16T18:22:57.510Z,101214.16
2023-04-16T18:25:33.730Z,101216.80
2023-04-16T18:28:05.282Z,101217.11
2023-04-16T18:30:34.704Z,101223.05
2023-04-16T18:33:25.119Z,101221.42
2023-04-16T18:35:52.490Z,101217.48
2023-04-16T18:38:21.239Z,101203.83
2023-04-16T18:40:50.176Z,101208.83
2023-04-16T18:43:19.242Z,101207.65
2023-04-16T18:45:53.416Z,101207.91
2023-04-16T18:48:22.039Z,101209.10
2023-04-16T18:50:50.689Z,101208.16
2023-04-16T18:53:19.367Z,101202.94
2023-04-16T18:55:53.909Z,101198.39
2023-04-16T18:58:22.692Z,101200.70
2023-04-16T19:00:58.590Z,101205.77
2023-04-16T19:03:28.705Z,101203.29
2023-04-16T19:05:57.528Z,101198.16
2023-04-16T19:08:29.421Z,101199.92
2023-04-16T19:10:58.126Z,101203.90
2023-04-16T19:13:26.913Z,101204.64
2023-04-16T19:16:01.866Z,101206.00
2023-04-16T19:18:30.610Z,101204.73
2023-04-16T19:21:03.265Z,101201.06
2023-04-16T19:23:31.852Z,101201.10
2023-04-16T19:26:01.768Z,101201.69
2023-04-16T19:28:30.560Z,101200.86
2023-04-16T19:31:00.286Z,101209.39
2023-04-16T19:33:29.093Z,101208.35
2023-04-16T19:35:58.665Z,101206.02
2023-04-16T19:38:28.140Z,101204.55
2023-04-16T19:40:57.128Z,101203.99
2023-04-16T19:43:25.705Z,101202.97
2023-04-16T19:45:55.645Z,101201.37
2023-04-16T19:48:24.580Z,101202.77
2023-04-16T19:50:53.296Z,101198.79
2023-04-16T19:53:22.476Z,101194.00
2023-04-16T19:55:52.021Z,101195.11
2023-04-16T19:58:20.777Z,101190.45
2023-04-16T20:00:49.533Z,101189.58
2023-04-16T20:03:18.486Z,101188.67
2023-04-16T20:05:50.053Z,101192.98
2023-04-16T20:08:18.640Z,101193.17
2023-04-16T20:10:47.474Z,101192.70
2023-04-16T20:13:17.935Z,101194.94
2023-04-16T20:15:47.478Z,101195.21
2023-04-16T20:18:16.193Z,101191.88
2023-04-16T20:20:45.271Z,101194.59
2023-04-16T20:23:14.498Z,101195.48
2023-04-16T20:25:43.921Z,101191.93
2023-04-16T20:28:14.787Z,101188.88
2023-04-16T20:30:43.464Z,101188.91
2023-04-16T20:33:12.366Z,101188.13
2023-04-16T20:35:41.111Z,101186.91
2023-04-16T20:38:09.813Z,101187.46
2023-04-16T20:40:40.062Z,101183.09
2023-04-16T20:43:10.504Z,101182.41
2023-04-16T20:45:41.108Z,101178.48
2023-04-16T20:48:10.303Z,101175.52
2023-04-16T20:53:52.327Z,101175.45
2023-04-16T20:56:21.062Z,101173.29
2023-04-16T20:58:49.831Z,101172.25
2023-04-16T21:01:18.676Z,101173.48
2023-04-16T21:03:47.667Z,101174.98
2023-04-16T21:06:17.928Z,101172.42
2023-04-16T21:08:46.685Z,101168.41
2023-04-16T21:11:15.296Z,101165.48
2023-04-16T21:13:44.570Z,101164.30
2023-04-16T21:16:13.104Z,101165.30
2023-04-16T21:18:41.795Z,101165.30
2023-04-16T21:21:10.502Z,101161.36
2023-04-16T21:23:39.197Z,101161.04
2023-04-16T21:26:08.123Z,101156.27
2023-04-16T21:28:36.775Z,101156.96
2023-04-16T21:31:05.787Z,101152.58
2023-04-16T21:33:34.977Z,101149.92
2023-04-16T21:36:03.955Z,101148.02
2023-04-16T21:38:32.671Z,101138.20
2023-04-16T21:41:02.072Z,101135.61
2023-04-16T21:43:32.239Z,101134.80
2023-04-16T21:46:00.936Z,101133.98
2023-04-16T21:48:29.647Z,101136.23
2023-04-16T21:51:06.497Z,101141.95
2023-04-16T21:53:35.695Z,101140.84
2023-04-16T21:56:04.432Z,101141.95
2023-04-16T21:58:33.089Z,101147.17
2023-04-16T22:01:01.972Z,101142.45
2023-04-16T22:03:31.254Z,101140.38
2023-04-16T22:06:03.352Z,101136.90
2023-04-16T22:08:32.356Z,101139.66
2023-04-16T22:11:03.190Z,101146.30
2023-04-16T22:13:32.653Z,101148.98
2023-04-16T22:16:01.572Z,101148.34
2023-04-16T22:18:33.911Z,101154.09
2023-04-16T22:21:02.958Z,101154.08
2023-04-16T22:23:31.780Z,101157.25
2023-04-16T22:26:02.992Z,101157.23
2023-04-16T22:28:32.008Z,101155.71
2023-04-16T22:31:00.770Z,101154.55
2023-04-16T22:33:30.737Z,101153.69
2023-04-16T22:36:00.928Z,101155.72
2023-04-16T22:38:29.698Z,101156.10
2023-04-16T22:40:58.348Z,101156.65
2023-04-16T22:43:27.043Z,101155.88
2023-04-16T22:46:09.674Z,101150.55
2023-04-16T22:48:38.894Z,101145.58
2023-04-16T22:51:10.706Z,101145.24
2023-04-16T22:53:39.346Z,101150.42
2023-04-16T22:56:08.134Z,101147.73
2023-04-16T22:58:37.146Z,101142.38
2023-04-16T23:01:05.862Z,101145.89
2023-04-16T23:03:34.662Z,101143.90
2023-04-16T23:06:06.558Z,101151.55
2023-04-16T23:08:35.282Z,101148.08
2023-04-16T23:11:04.146Z,101141.71
2023-04-16T23:13:32.935Z,101134.70
2023-04-16T23:16:02.745Z,101135.75
2023-04-16T23:18:31.699Z,101134.91
2023-04-16T23:21:00.452Z,101134.56
2023-04-16T23:23:29.193Z,101133.87
2023-04-16T23:25:57.837Z,101127.61
2023-04-16T23:28:26.432Z,101125.44
2023-04-16T23:30:55.124Z,101130.09
2023-04-16T23:33:23.802Z,101129.85
2023-04-16T23:35:52.803Z,101138.27
2023-04-16T23:38:21.695Z,101139.91
2023-04-16T23:40:50.894Z,101137.39
2023-04-16T23:43:19.674Z,101138.63
2023-04-16T23:45:48.419Z,101139.09
2023-04-16T23:48:17.234Z,101135.64
2023-04-16T23:50:45.941Z,101137.72
2023-04-16T23:53:14.892Z,101137.27
2023-04-16T23:55:43.665Z,101132.85
2023-04-16T23:58:12.339Z,101137.46
